Pagrindinis puslapis
METAR-TAF:

METAR-TAF

Oro uostai :

Asjutas, Egiptas

platuma: 27-03N, ilguma: 031-01E, Aukštis: 226 m

Dabartinis oras

Ataskaita buvo paskelbta 1 valandą ir 34 minutes, ne 12:00 UTC
Vėjas 10 kt iš Šiaurės
Temperatūra 32°C
Drėgmė 23%
Slėgis 1012 hPa
Matomumas 10 km arba daugiau
nėra debesų žemiau 1500 m ir nėra kamuolinių lietaus debesų

METAR: HEAT 201200Z 36010KT CAVOK 32/08 Q1012 NOSIG

Laikas: 15:34 (13:34 UTC)

Prognozė

Ataskaita buvo paskelbta 2 valandos ir 34 minutes, ne 11:00 UTC
Prognozė galioja nuo 20 metu 12 UTC su 21 metu 18 UTC
Vėjas 12 kt iš Šiaurės
Matomumas 10 km arba daugiau
nėra debesų žemiau 1500 m ir nėra kamuolinių lietaus debesų

TAF: HEAT 201100Z 2012/2118 35012KT CAVOK

Orai ataskaitas ir orų prognozės (METAR, TAF).

turimą stotys yra geltonos ir raudonos taškus žemėlapyje.

Perkelti pele per norėdami pamatyti stoties vardą.

Tada spustelėkite, norėdami matyti oro stebėjimo ir prognozės.

Norėdami pakeisti žemėlapį: spustelėkite ant žalios mygtukų su juodo kryžiaus žemyn,; žalią mygtuką su brūkšneliu, jei norite nutolinti; arba žalių rodyklių gretimoms žemėlapius.


METAR-TAF: